Time;durP1;ratioP1;P1;durP2;ratioP2;P2;SDS_P1;SDS_P2;PMS_P1;PMS_P2;Temp;Humidity;BMP_temperature;BMP_pressure;BME280_temperature;BME280_humidity;BME280_pressure;Samples;Min_cycle;Max_cycle;Signal;HPM_P1;HPM_P2
2022/12/01 00:01:20;;;;;;;0.00;0.00;;;;;;;8.58;55.92;95349.69;4940446;29;20192;-68
2022/12/01 00:03:47;;;;;;;0.00;0.00;;;;;;;8.39;56.28;95355.28;4954518;28;20235;-68
2022/12/01 00:06:19;;;;;;;0.00;0.00;;;;;;;8.19;56.90;95350.41;4938626;28;20264;-67
2022/12/01 00:11:36;;;;;;;0.00;0.00;;;;;;;8.05;57.50;95359.50;4935423;29;20711;-67
2022/12/01 00:14:04;;;;;;;0.00;0.00;;;;;;;8.34;56.38;95358.56;4941569;29;20283;-67
2022/12/01 00:16:32;;;;;;;0.00;0.00;;;;;;;8.29;56.54;95350.66;4954739;28;20553;-66
2022/12/01 00:18:59;;;;;;;0.00;0.00;;;;;;;8.16;56.91;95345.63;4935989;28;20757;-65
2022/12/01 00:21:27;;;;;;;0.00;0.00;;;;;;;8.29;56.01;95350.66;4945821;29;20204;-66
2022/12/01 00:23:56;;;;;;;0.08;0.08;;;;;;;8.29;56.08;95355.88;4940405;28;20227;-67
2022/12/01 00:26:24;;;;;;;0.00;0.00;;;;;;;8.19;57.00;95353.03;4944788;28;20201;-66
2022/12/01 00:28:53;;;;;;;0.00;0.00;;;;;;;8.03;56.69;95348.47;4950564;28;20214;-66
2022/12/01 00:31:21;;;;;;;0.00;0.00;;;;;;;7.97;57.23;95357.25;4954079;28;20267;-68
2022/12/01 00:33:48;;;;;;;0.00;0.00;;;;;;;8.19;56.12;95353.03;4939428;28;20819;-67
2022/12/01 00:36:15;;;;;;;0.00;0.00;;;;;;;8.07;57.01;95341.78;4953981;28;20228;-67
2022/12/01 00:38:42;;;;;;;0.00;0.00;;;;;;;7.99;57.02;95350.75;4940914;28;20204;-67
2022/12/01 00:41:09;;;;;;;0.00;0.00;;;;;;;8.34;56.44;95350.75;4953592;29;20200;-67
2022/12/01 00:43:35;;;;;;;0.00;0.00;;;;;;;8.53;55.89;95338.34;4953797;28;20208;-65
2022/12/01 00:46:03;;;;;;;0.10;0.10;;;;;;;8.49;55.51;95345.84;4939972;28;20680;-66
2022/12/01 00:48:30;;;;;;;0.20;0.20;;;;;;;8.28;56.33;95351.69;4953342;28;20239;-65
2022/12/01 00:50:56;;;;;;;0.00;0.00;;;;;;;8.60;55.76;95331.16;4948098;28;20213;-66
2022/12/01 00:53:23;;;;;;;0.00;0.00;;;;;;;8.56;55.47;95343.88;4943810;29;20715;-66
2022/12/01 00:55:52;;;;;;;0.00;0.00;;;;;;;8.10;56.33;95341.34;4953598;28;20870;-70
2022/12/01 00:58:20;;;;;;;0.00;0.00;;;;;;;7.69;57.66;95344.88;4949009;28;20201;-67
2022/12/01 01:00:47;;;;;;;0.00;0.00;;;;;;;8.13;57.06;95340.88;4948092;29;20727;-68
2022/12/01 01:03:15;;;;;;;3.00;1.70;;;;;;;8.27;56.47;95337.03;4946715;28;20197;-67
2022/12/01 01:05:42;;;;;;;0.10;0.10;;;;;;;8.33;56.06;95341.34;4946959;28;20243;-67
2022/12/01 01:08:12;;;;;;;0.00;0.00;;;;;;;8.57;56.40;95331.63;4953160;28;20224;-67
2022/12/01 01:10:41;;;;;;;0.20;0.20;;;;;;;8.67;55.82;95327.38;4953347;28;20622;-66
2022/12/01 01:13:09;;;;;;;0.00;0.00;;;;;;;8.56;55.50;95332.66;4948720;29;20238;-66
2022/12/01 01:15:36;;;;;;;0.00;0.00;;;;;;;8.29;56.53;95344.63;4944662;29;20232;-66
2022/12/01 01:18:04;;;;;;;0.22;0.22;;;;;;;8.26;56.49;95327.63;4950629;28;21072;-68
2022/12/01 01:20:31;;;;;;;0.00;0.00;;;;;;;8.14;56.97;95332.81;4942774;29;20746;-67
2022/12/01 01:22:58;;;;;;;0.00;0.00;;;;;;;8.40;56.87;95330.75;4939521;28;20201;-66
2022/12/01 01:25:25;;;;;;;0.00;0.00;;;;;;;8.31;56.09;95319.09;4952850;28;20315;-65
2022/12/01 01:27:52;;;;;;;0.00;0.00;;;;;;;7.80;57.57;95331.03;4940515;28;20676;-67
2022/12/01 01:30:19;;;;;;;0.00;0.00;;;;;;;8.32;56.54;95329.28;4952813;28;20231;-68
2022/12/01 01:32:46;;;;;;;0.00;0.00;;;;;;;8.34;56.20;95316.81;4953129;28;20292;-68
2022/12/01 01:35:13;;;;;;;0.00;0.00;;;;;;;8.33;56.39;95314.44;4939428;28;20628;-68
2022/12/01 01:37:40;;;;;;;0.00;0.00;;;;;;;8.46;56.91;95322.81;4943230;28;20211;-66
2022/12/01 01:40:07;;;;;;;0.00;0.00;;;;;;;8.45;56.90;95313.38;4949341;28;20199;-67
2022/12/01 01:42:34;;;;;;;0.00;0.00;;;;;;;8.76;55.79;95304.28;4953054;28;20204;-64
2022/12/01 01:45:01;;;;;;;0.00;0.00;;;;;;;8.68;55.90;95307.28;4951552;28;20738;-67
2022/12/01 01:47:39;;;;;;;0.00;0.00;;;;;;;8.78;56.05;95308.25;4940199;28;20290;-67
2022/12/01 01:50:09;;;;;;;0.00;0.00;;;;;;;8.74;55.92;95301.13;4939402;28;20293;-68
2022/12/01 01:52:42;;;;;;;0.00;0.00;;;;;;;8.50;56.33;95303.03;4936794;28;20192;-69
2022/12/01 01:55:09;;;;;;;0.00;0.00;;;;;;;8.47;56.93;95302.69;4952679;28;20275;-65
2022/12/01 01:57:37;;;;;;;0.00;0.00;;;;;;;8.71;55.61;95296.34;4936752;28;20192;-66
2022/12/01 02:00:19;;;;;;;0.00;0.00;;;;;;;8.72;56.29;95290.91;4933262;29;20209;-63
2022/12/01 02:02:47;;;;;;;0.88;0.80;;;;;;;8.66;55.77;95299.69;4949372;28;20231;-67
2022/12/01 02:05:24;;;;;;;0.00;0.00;;;;;;;8.32;57.24;95303.19;4943359;28;20602;-67
2022/12/01 02:07:54;;;;;;;0.00;0.00;;;;;;;8.69;56.05;95293.97;4949271;28;20303;-66
2022/12/01 02:10:30;;;;;;;0.00;0.00;;;;;;;8.64;55.94;95283.44;4951874;28;20306;-66
2022/12/01 02:13:35;;;;;;;0.00;0.00;;;;;;;8.68;56.34;95289.00;4938727;28;20195;-68
2022/12/01 02:16:11;;;;;;;0.00;0.00;;;;;;;8.32;56.99;95287.50;4952479;28;20206;-67
2022/12/01 02:18:47;;;;;;;0.10;0.10;;;;;;;8.34;56.97;95295.13;4952049;28;20231;-69
2022/12/01 02:21:36;;;;;;;0.00;0.00;;;;;;;8.53;56.55;95294.72;4951053;28;20214;-66
2022/12/01 02:24:17;;;;;;;0.00;0.00;;;;;;;8.38;57.01;95291.81;4942376;28;20204;-67
2022/12/01 02:27:13;;;;;;;0.13;0.13;;;;;;;8.17;57.93;95295.03;4951862;28;20311;-67
2022/12/01 02:29:52;;;;;;;0.00;0.00;;;;;;;8.23;57.80;95295.94;4951644;28;20210;-65
2022/12/01 02:32:34;;;;;;;0.00;0.00;;;;;;;8.10;58.42;95289.16;4940692;29;20195;-64
2022/12/01 02:35:19;;;;;;;0.00;0.00;;;;;;;8.41;57.83;95296.56;4951797;28;20200;-69
2022/12/01 02:37:52;;;;;;;0.00;0.00;;;;;;;8.21;57.82;95291.72;4951890;29;20651;-66
2022/12/01 02:40:25;;;;;;;0.00;0.00;;;;;;;8.30;57.77;95286.19;4938099;28;20644;-68
2022/12/01 02:43:01;;;;;;;0.00;0.00;;;;;;;8.15;57.75;95291.84;4951539;28;20255;-68
2022/12/01 02:45:36;;;;;;;0.00;0.00;;;;;;;8.35;57.03;95281.06;4947139;28;20220;-67
2022/12/01 02:48:10;;;;;;;0.00;0.00;;;;;;;8.48;56.72;95278.97;4943718;28;20231;-67
2022/12/01 02:50:39;;;;;;;0.05;0.05;;;;;;;8.60;56.37;95287.53;4935111;28;20205;-68
2022/12/01 02:53:10;;;;;;;0.00;0.00;;;;;;;8.34;56.76;95280.25;4932292;29;20196;-67
2022/12/01 02:55:45;;;;;;;0.00;0.00;;;;;;;8.47;56.85;95295.66;4931835;29;20239;-68
2022/12/01 02:58:14;;;;;;;0.00;0.00;;;;;;;8.53;57.15;95291.31;4939774;29;20195;-65
2022/12/01 03:01:10;;;;;;;0.30;0.30;;;;;;;8.55;56.99;95287.47;4938059;28;20238;-65
2022/12/01 03:03:46;;;;;;;0.00;0.00;;;;;;;8.26;57.45;95283.25;4945931;28;20330;-68
2022/12/01 03:06:50;;;;;;;0.00;0.00;;;;;;;8.30;57.13;95279.16;4935306;28;20219;-64
2022/12/01 03:09:20;;;;;;;0.00;0.00;;;;;;;8.15;57.72;95292.66;4946151;28;20199;-69
2022/12/01 03:12:19;;;;;;;0.25;0.25;;;;;;;8.17;58.19;95295.03;4944548;28;20199;-65
2022/12/01 03:15:18;;;;;;;0.17;0.17;;;;;;;8.21;57.37;95291.72;4945520;28;20207;-65
2022/12/01 03:18:08;;;;;;;0.00;0.00;;;;;;;8.27;57.66;95279.59;4945616;28;20286;-65
2022/12/01 03:20:53;;;;;;;0.15;0.15;;;;;;;8.16;57.75;95293.44;4941844;28;20218;-67
2022/12/01 03:23:24;;;;;;;0.00;0.00;;;;;;;8.35;57.56;95284.47;4935641;28;20192;-62
2022/12/01 03:25:55;;;;;;;0.00;0.00;;;;;;;8.37;57.31;95284.22;4950925;28;20322;-64
2022/12/01 03:28:29;;;;;;;0.00;0.00;;;;;;;8.11;57.40;95290.72;4947636;28;20719;-67
2022/12/01 03:31:05;;;;;;;0.10;0.10;;;;;;;8.09;57.91;95287.56;4942455;29;20199;-67
2022/12/01 03:33:43;;;;;;;0.00;0.00;;;;;;;7.83;58.35;95283.63;4946229;28;20615;-66
2022/12/01 03:36:24;;;;;;;0.00;0.00;;;;;;;8.01;57.57;95287.91;4940281;29;20682;-67
2022/12/01 03:38:58;;;;;;;0.40;0.40;;;;;;;7.78;57.83;95293.16;4934340;28;20637;-65
2022/12/01 03:41:34;;;;;;;0.00;0.00;;;;;;;7.55;58.94;95280.13;4941156;29;20195;-64
2022/12/01 03:44:13;;;;;;;0.47;0.15;;;;;;;7.91;58.54;95285.09;4951018;28;20562;-67
2022/12/01 03:46:52;;;;;;;0.00;0.00;;;;;;;8.18;57.11;95275.72;4939871;28;20752;-67
2022/12/01 03:49:20;;;;;;;0.00;0.00;;;;;;;7.77;57.73;95275.91;4950225;28;20211;-67
2022/12/01 03:51:59;;;;;;;0.05;0.05;;;;;;;7.99;57.55;95271.69;4938066;28;20295;-66
2022/12/01 03:54:51;;;;;;;0.00;0.00;;;;;;;7.88;57.62;95281.09;4935760;29;20199;-70
2022/12/01 03:57:25;;;;;;;0.25;0.25;;;;;;;7.59;58.57;95276.03;4950913;29;20208;-69
2022/12/01 03:59:53;;;;;;;0.00;0.00;;;;;;;7.57;58.62;95288.50;4938463;29;20210;-69
2022/12/01 04:02:20;;;;;;;0.00;0.00;;;;;;;6.63;60.64;95275.53;4938320;28;20224;-66
2022/12/01 04:04:47;;;;;;;0.00;0.00;;;;;;;6.87;60.90;95274.59;4944864;28;20193;-66
2022/12/01 04:07:14;;;;;;;0.00;0.00;;;;;;;6.99;61.14;95286.63;4944043;28;20279;-66
2022/12/01 04:09:41;;;;;;;0.00;0.00;;;;;;;7.28;60.44;95278.97;4954450;28;20204;-67
2022/12/01 04:12:31;;;;;;;0.00;0.00;;;;;;;7.44;60.52;95283.53;4944438;28;20200;-66
2022/12/01 04:15:01;;;;;;;0.00;0.00;;;;;;;7.50;60.12;95280.78;4934960;29;20200;-66
2022/12/01 04:17:28;;;;;;;0.00;0.00;;;;;;;7.57;59.51;95288.50;4946884;29;20315;-69
2022/12/01 04:19:56;;;;;;;0.00;0.00;;;;;;;7.52;60.18;95283.19;4936511;28;20655;-65
2022/12/01 04:22:24;;;;;;;0.00;0.00;;;;;;;7.56;59.47;95292.13;4945146;28;20219;-65
2022/12/01 04:24:51;;;;;;;0.00;0.00;;;;;;;7.45;60.42;95287.69;4954514;28;20231;-63
2022/12/01 04:27:19;;;;;;;0.00;0.00;;;;;;;7.15;61.10;95285.97;4945466;28;20232;-67
2022/12/01 04:29:46;;;;;;;0.00;0.00;;;;;;;7.32;60.57;95287.94;4948646;29;20202;-64
2022/12/01 04:32:13;;;;;;;0.20;0.20;;;;;;;7.53;59.84;95269.94;4942253;29;20200;-67
2022/12/01 04:34:41;;;;;;;4.15;0.57;;;;;;;7.59;59.69;95294.31;4940940;28;20738;-69
2022/12/01 04:37:08;;;;;;;0.00;0.00;;;;;;;7.39;60.21;95291.22;4934953;29;20192;-63
2022/12/01 04:39:35;;;;;;;0.00;0.00;;;;;;;7.02;61.30;95280.97;4946748;29;20584;-67
2022/12/01 04:42:03;;;;;;;0.00;0.00;;;;;;;7.16;61.29;95294.59;4940189;28;20254;-69
2022/12/01 04:44:30;;;;;;;0.00;0.00;;;;;;;7.52;60.94;95291.00;4954242;28;20211;-65
2022/12/01 04:47:02;;;;;;;0.00;0.00;;;;;;;7.49;60.87;95299.28;4950216;28;20299;-67
2022/12/01 04:49:29;;;;;;;0.00;0.00;;;;;;;7.74;59.54;95297.22;4934397;29;20677;-67
2022/12/01 04:51:56;;;;;;;0.00;0.00;;;;;;;7.58;60.20;95295.31;4934275;29;20215;-68
2022/12/01 04:54:23;;;;;;;0.00;0.00;;;;;;;7.63;59.74;95298.00;4947968;28;20218;-67
2022/12/01 04:56:50;;;;;;;0.40;0.40;;;;;;;7.49;60.31;95296.66;4944448;28;20220;-66
2022/12/01 04:59:17;;;;;;;0.00;0.00;;;;;;;7.74;59.98;95300.63;4951413;28;20227;-65
2022/12/01 05:01:46;;;;;;;0.00;0.00;;;;;;;7.74;59.81;95294.63;4938558;29;20200;-68
2022/12/01 05:04:14;;;;;;;0.00;0.00;;;;;;;7.66;59.29;95290.56;4938162;28;20642;-68
2022/12/01 05:06:41;;;;;;;0.00;0.00;;;;;;;7.64;59.72;95294.41;4933322;29;20677;-67
2022/12/01 05:09:12;;;;;;;0.30;0.30;;;;;;;7.28;60.84;95299.81;4933122;29;20280;-66
2022/12/01 05:11:43;;;;;;;0.00;0.00;;;;;;;7.56;60.69;95300.75;4933074;29;20271;-68
2022/12/01 05:14:10;;;;;;;0.00;0.00;;;;;;;7.70;59.59;95293.50;4934217;29;20291;-65
2022/12/01 05:16:37;;;;;;;0.00;0.00;;;;;;;7.26;60.74;95302.66;4934120;29;20205;-65
2022/12/01 05:21:51;;;;;;;0.10;0.10;;;;;;;7.36;60.57;95307.31;4945952;28;20199;-65
2022/12/01 05:24:18;;;;;;;0.00;0.00;;;;;;;7.62;59.93;95309.47;4953636;28;20200;-65
2022/12/01 05:26:46;;;;;;;0.00;0.00;;;;;;;7.37;60.98;95298.47;4952571;28;20743;-66
2022/12/01 05:29:13;;;;;;;0.00;0.00;;;;;;;7.73;59.99;95298.25;4942974;28;20614;-68
2022/12/01 05:31:40;;;;;;;0.00;0.00;;;;;;;7.79;59.42;95307.78;4947003;28;20607;-65
2022/12/01 05:34:08;;;;;;;0.15;0.08;;;;;;;7.72;59.68;95312.34;4943274;28;20200;-67
2022/12/01 05:36:35;;;;;;;0.00;0.00;;;;;;;7.76;59.50;95300.41;4953522;28;20204;-69
2022/12/01 05:39:03;;;;;;;0.00;0.00;;;;;;;7.88;59.78;95296.75;4946094;28;20259;-71
2022/12/01 05:41:30;;;;;;;0.00;0.00;;;;;;;7.96;59.32;95303.44;4932471;29;20672;-68
2022/12/01 05:43:57;;;;;;;0.40;0.40;;;;;;;7.98;59.79;95311.84;4934059;29;20203;-69
2022/12/01 05:46:23;;;;;;;0.00;0.00;;;;;;;7.92;59.18;95310.13;4933555;29;20276;-71
2022/12/01 05:48:50;;;;;;;0.00;0.00;;;;;;;7.93;59.67;95309.94;4937599;29;20825;-64
2022/12/01 05:51:17;;;;;;;0.00;0.00;;;;;;;7.88;59.35;95309.03;4942274;28;20643;-65
2022/12/01 05:53:44;;;;;;;0.35;0.35;;;;;;;7.75;59.67;95310.06;4945013;28;20278;-67
2022/12/01 05:56:11;;;;;;;0.00;0.00;;;;;;;7.99;59.29;95314.22;4950851;28;20230;-67
2022/12/01 05:58:38;;;;;;;0.05;0.03;;;;;;;7.94;58.69;95310.72;4952822;28;20574;-64
2022/12/01 06:01:05;;;;;;;0.10;0.10;;;;;;;7.87;59.04;95316.06;4935965;28;20645;-66
2022/12/01 06:03:32;;;;;;;0.10;0.10;;;;;;;8.02;58.21;95307.75;4933574;29;20307;-67
2022/12/01 06:05:59;;;;;;;0.00;0.00;;;;;;;8.14;58.31;95316.34;4948082;28;20234;-69
2022/12/01 06:08:26;;;;;;;0.93;0.93;;;;;;;8.09;58.31;95303.22;4945270;28;20208;-67
2022/12/01 06:10:53;;;;;;;0.32;0.30;;;;;;;8.28;58.70;95316.94;4946324;28;20219;-69
2022/12/01 06:13:20;;;;;;;0.00;0.00;;;;;;;8.13;57.54;95312.16;4938578;29;20199;-67
2022/12/01 06:16:02;;;;;;;0.00;0.00;;;;;;;7.99;58.06;95313.44;4939511;28;20204;-64
2022/12/01 06:18:37;;;;;;;0.10;0.10;;;;;;;7.80;58.36;95315.38;4933083;29;20205;-66
2022/12/01 06:21:05;;;;;;;0.00;0.00;;;;;;;7.78;58.70;95312.22;4946551;28;20610;-69
2022/12/01 06:23:33;;;;;;;0.00;0.00;;;;;;;7.74;58.89;95315.47;4933376;28;20236;-66
2022/12/01 06:25:59;;;;;;;0.15;0.15;;;;;;;7.66;58.93;95318.44;4949781;29;20734;-64
2022/12/01 06:28:26;;;;;;;0.30;0.30;;;;;;;7.44;59.62;95310.38;4943006;28;20208;-67
2022/12/01 06:30:53;;;;;;;0.30;0.30;;;;;;;7.83;58.57;95308.91;4945566;28;20224;-68
2022/12/01 06:33:30;;;;;;;0.00;0.00;;;;;;;7.71;57.59;95310.72;4931765;29;20204;-69
2022/12/01 06:35:59;;;;;;;0.00;0.00;;;;;;;7.59;58.10;95307.34;4932712;29;20209;-66
2022/12/01 06:38:29;;;;;;;0.00;0.00;;;;;;;7.41;58.14;95304.84;4951876;28;20234;-65
2022/12/01 06:40:55;;;;;;;0.00;0.00;;;;;;;7.47;57.90;95306.53;4951912;28;20204;-66
2022/12/01 06:43:22;;;;;;;0.00;0.00;;;;;;;7.21;59.29;95306.97;4945196;28;20590;-65
2022/12/01 06:45:49;;;;;;;0.00;0.00;;;;;;;7.17;59.45;95310.00;4944960;29;20758;-66
2022/12/01 06:48:18;;;;;;;0.00;0.00;;;;;;;7.21;59.50;95309.56;4933301;28;20315;-66
2022/12/01 06:50:45;;;;;;;0.00;0.00;;;;;;;7.35;59.20;95313.53;4939520;29;20240;-67
2022/12/01 06:53:12;;;;;;;0.00;0.00;;;;;;;7.21;59.84;95310.34;4940515;29;20204;-67
2022/12/01 06:55:57;;;;;;;0.00;0.00;;;;;;;7.17;59.58;95310.00;4951696;28;20214;-65
2022/12/01 06:58:24;;;;;;;0.13;0.13;;;;;;;7.63;57.79;95303.22;4932793;29;20212;-68
2022/12/01 07:00:51;;;;;;;15.05;1.85;;;;;;;7.47;58.26;95306.53;4946889;29;20645;-67
2022/12/01 07:03:18;;;;;;;0.00;0.00;;;;;;;7.58;58.75;95310.94;4944744;28;20267;-65
2022/12/01 07:05:54;;;;;;;0.00;0.00;;;;;;;7.37;58.54;95303.69;4945746;28;20199;-67
2022/12/01 07:08:21;;;;;;;0.00;0.00;;;;;;;7.31;57.94;95320.22;4939354;28;20294;-65
2022/12/01 07:10:59;;;;;;;0.00;0.00;;;;;;;7.34;58.19;95311.94;4939477;28;20267;-67
2022/12/01 07:13:27;;;;;;;0.00;0.00;;;;;;;6.99;58.48;95317.88;4932728;29;20196;-65
2022/12/01 07:16:18;;;;;;;0.00;0.00;;;;;;;7.17;58.04;95320.41;4934928;28;20210;-65
2022/12/01 07:18:44;;;;;;;0.00;0.00;;;;;;;6.85;59.43;95316.50;4951861;28;20199;-67
2022/12/01 07:21:13;;;;;;;0.15;0.15;;;;;;;7.35;58.96;95326.59;4938122;28;20200;-64
2022/12/01 07:23:40;;;;;;;0.00;0.00;;;;;;;7.43;58.58;95326.22;4951264;28;20192;-67
2022/12/01 07:26:12;;;;;;;0.00;0.00;;;;;;;7.59;58.87;95325.59;4939177;28;20247;-65
2022/12/01 07:28:40;;;;;;;0.20;0.20;;;;;;;7.63;58.34;95339.75;4938155;29;20203;-65
2022/12/01 07:31:17;;;;;;;0.10;0.10;;;;;;;7.55;58.29;95325.25;4951676;28;20258;-67
2022/12/01 07:33:44;;;;;;;0.00;0.00;;;;;;;7.52;58.47;95317.09;4937909;29;20203;-68
2022/12/01 07:36:12;;;;;;;0.00;0.00;;;;;;;7.56;58.30;95331.25;4939918;28;20284;-66
2022/12/01 07:38:39;;;;;;;0.00;0.00;;;;;;;7.58;57.64;95326.59;4945702;28;20309;-65
2022/12/01 07:41:18;;;;;;;0.00;0.00;;;;;;;7.60;58.02;95329.78;4942371;29;20247;-65
2022/12/01 07:43:48;;;;;;;0.00;0.00;;;;;;;7.35;58.60;95323.97;4948406;28;20223;-65
2022/12/01 07:46:18;;;;;;;0.20;0.20;;;;;;;7.42;58.16;95327.25;4936240;29;20223;-66
2022/12/01 07:48:49;;;;;;;0.00;0.00;;;;;;;7.54;58.10;95325.44;4935894;29;20200;-65
2022/12/01 07:51:16;;;;;;;0.20;0.20;;;;;;;7.50;58.19;95321.72;4937448;29;20300;-66
2022/12/01 07:53:44;;;;;;;11.15;2.65;;;;;;;7.32;58.82;95327.03;4935570;29;20287;-67
2022/12/01 07:56:12;;;;;;;1.70;0.63;;;;;;;7.30;58.52;95326.47;4953711;28;20203;-63
2022/12/01 07:58:39;;;;;;;0.00;0.00;;;;;;;6.98;59.01;95334.53;4954505;28;20290;-64
2022/12/01 08:01:08;;;;;;;0.00;0.00;;;;;;;7.54;57.90;95335.88;4941394;28;20196;-66
2022/12/01 08:03:35;;;;;;;0.63;0.45;;;;;;;7.65;57.84;95332.50;4954578;28;20206;-67
2022/12/01 08:06:04;;;;;;;0.85;0.75;;;;;;;7.82;58.04;95333.41;4940877;28;20203;-66
2022/12/01 08:08:33;;;;;;;1.60;0.75;;;;;;;7.51;58.28;95331.13;4946655;28;20197;-66
2022/12/01 08:11:03;;;;;;;0.00;0.00;;;;;;;7.64;58.97;95333.53;4949614;29;20204;-64
2022/12/01 08:13:30;;;;;;;0.10;0.10;;;;;;;7.21;58.63;95309.56;4954442;28;20196;-67
2022/12/01 08:15:57;;;;;;;0.32;0.32;;;;;;;7.43;59.29;95334.84;4955017;28;20203;-65
2022/12/01 08:18:24;;;;;;;0.00;0.00;;;;;;;6.98;59.07;95336.34;4935761;28;20248;-66
2022/12/01 08:20:56;;;;;;;2.83;1.85;;;;;;;7.18;59.46;95332.44;4947061;28;20215;-66
2022/12/01 08:23:23;;;;;;;0.00;0.00;;;;;;;7.08;59.57;95337.41;4940637;28;20231;-66
2022/12/01 08:25:51;;;;;;;0.00;0.00;;;;;;;7.35;59.60;95337.81;4953946;28;20722;-66
2022/12/01 08:28:19;;;;;;;0.10;0.10;;;;;;;7.47;58.76;95335.19;4953824;28;20227;-69
2022/12/01 08:30:46;;;;;;;0.00;0.00;;;;;;;7.28;58.67;95331.09;4954358;28;20220;-66
2022/12/01 08:33:13;;;;;;;0.00;0.00;;;;;;;7.33;59.12;95333.81;4952516;28;20207;-67
2022/12/01 08:35:40;;;;;;;1.27;0.40;;;;;;;7.52;58.61;95332.75;4942740;29;20270;-64
2022/12/01 08:38:08;;;;;;;0.00;0.00;;;;;;;7.39;59.07;95327.72;4940797;28;20209;-64
2022/12/01 08:40:35;;;;;;;0.00;0.00;;;;;;;7.54;58.59;95335.88;4940801;29;20637;-65
2022/12/01 08:43:04;;;;;;;0.03;0.03;;;;;;;7.09;58.82;95338.19;4941782;29;20201;-66
2022/12/01 08:45:30;;;;;;;0.05;0.05;;;;;;;7.66;58.20;95329.69;4948151;28;20207;-66
2022/12/01 08:47:58;;;;;;;0.00;0.00;;;;;;;7.78;57.86;95333.06;4945219;28;20358;-67
2022/12/01 08:50:26;;;;;;;0.00;0.00;;;;;;;7.30;58.97;95322.03;4938781;28;20196;-68
2022/12/01 08:52:53;;;;;;;0.10;0.10;;;;;;;7.77;57.85;95322.88;4939839;28;20731;-67
2022/12/01 08:55:21;;;;;;;0.00;0.00;;;;;;;7.77;57.53;95321.03;4941526;28;20267;-68
2022/12/01 08:57:48;;;;;;;0.43;0.43;;;;;;;7.99;57.35;95329.09;4948215;29;20239;-66
2022/12/01 09:00:15;;;;;;;0.10;0.10;;;;;;;7.68;57.88;95326.84;4944614;29;20556;-67
2022/12/01 09:02:42;;;;;;;0.00;0.00;;;;;;;7.70;57.52;95327.41;4953645;28;20672;-63
2022/12/01 09:05:09;;;;;;;0.00;0.00;;;;;;;7.75;57.90;95327.53;4945544;28;20193;-67
2022/12/01 09:07:35;;;;;;;0.00;0.00;;;;;;;7.61;57.46;95323.56;4947814;29;20234;-66
2022/12/01 09:10:03;;;;;;;0.38;0.20;;;;;;;7.67;58.03;95325.25;4934280;29;20267;-68
2022/12/01 09:12:30;;;;;;;0.00;0.00;;;;;;;7.46;58.00;95315.38;4934348;29;20672;-65
2022/12/01 09:14:57;;;;;;;0.00;0.00;;;;;;;7.61;58.27;95315.72;4952500;28;20599;-67
2022/12/01 09:17:24;;;;;;;0.00;0.00;;;;;;;7.66;58.09;95314.03;4942781;28;20192;-66
2022/12/01 09:19:51;;;;;;;3.80;0.30;;;;;;;7.57;58.06;95311.97;4937726;29;20204;-64
2022/12/01 09:22:18;;;;;;;0.00;0.00;;;;;;;7.05;59.70;95311.00;4944378;29;20216;-66
2022/12/01 09:24:45;;;;;;;0.00;0.00;;;;;;;7.62;58.16;95309.47;4949461;28;20295;-65
2022/12/01 09:27:12;;;;;;;0.28;0.28;;;;;;;7.69;58.02;95307.56;4945413;28;20225;-68
2022/12/01 09:29:38;;;;;;;0.00;0.00;;;;;;;7.72;58.15;95296.69;4933796;29;20205;-65
2022/12/01 09:32:05;;;;;;;0.00;0.00;;;;;;;7.91;57.28;95301.53;4946970;28;20676;-68
2022/12/01 09:34:32;;;;;;;0.10;0.10;;;;;;;7.44;57.59;95296.56;4933687;29;20739;-66
2022/12/01 09:36:59;;;;;;;0.10;0.10;;;;;;;7.84;57.69;95300.06;4951480;29;20227;-66
2022/12/01 09:39:27;;;;;;;0.90;0.57;;;;;;;7.87;58.00;95294.38;4952781;28;20204;-65
2022/12/01 09:42:02;;;;;;;1.85;1.17;;;;;;;7.96;57.53;95303.44;4939580;28;20579;-67
2022/12/01 09:44:42;;;;;;;0.55;0.55;;;;;;;8.07;56.97;95292.19;4942350;28;20200;-66
2022/12/01 09:47:18;;;;;;;0.00;0.00;;;;;;;7.99;57.26;95282.13;4933252;29;20351;-65
2022/12/01 09:50:05;;;;;;;0.00;0.00;;;;;;;8.23;57.50;95300.13;4944848;28;20291;-66
2022/12/01 09:52:39;;;;;;;0.00;0.00;;;;;;;8.54;55.84;95290.31;4936573;28;20211;-64
2022/12/01 09:55:12;;;;;;;0.00;0.00;;;;;;;8.49;56.39;95285.78;4952638;28;20200;-65
2022/12/01 09:57:40;;;;;;;0.93;0.55;;;;;;;8.59;56.20;95278.13;4939203;28;20212;-68
2022/12/01 10:00:14;;;;;;;0.00;0.00;;;;;;;8.74;55.52;95278.41;4952901;28;20219;-63
2022/12/01 10:03:04;;;;;;;0.00;0.00;;;;;;;8.67;56.32;95269.91;4937241;28;20196;-66
2022/12/01 10:06:00;;;;;;;0.00;0.00;;;;;;;8.58;56.46;95271.31;4944313;28;20242;-66
2022/12/01 10:09:12;;;;;;;0.10;0.10;;;;;;;8.71;55.84;95271.03;4942852;29;20207;-68
2022/12/01 10:11:42;;;;;;;0.03;0.03;;;;;;;8.65;55.83;95266.72;4952626;29;20202;-67
2022/12/01 10:14:17;;;;;;;0.45;0.38;;;;;;;8.59;56.60;95262.47;4940700;28;20284;-68
2022/12/01 10:16:52;;;;;;;0.00;0.00;;;;;;;8.41;56.49;95270.47;4933290;29;20684;-68
2022/12/01 10:19:31;;;;;;;0.00;0.00;;;;;;;8.47;55.83;95263.50;4933079;29;20239;-66
2022/12/01 10:22:23;;;;;;;0.30;0.30;;;;;;;8.28;56.78;95265.53;4933358;29;20212;-67
2022/12/01 10:25:02;;;;;;;0.00;0.00;;;;;;;8.23;56.51;95268.00;4946345;29;20266;-66
2022/12/01 10:28:06;;;;;;;0.00;0.00;;;;;;;8.46;56.25;95257.53;4943265;29;20251;-67
2022/12/01 10:30:39;;;;;;;0.00;0.00;;;;;;;8.30;56.46;95266.09;4940572;28;20278;-65
2022/12/01 10:33:37;;;;;;;0.25;0.25;;;;;;;8.39;56.51;95262.09;4938631;28;20192;-65
2022/12/01 10:36:04;;;;;;;0.13;0.10;;;;;;;8.40;56.82;95258.44;4952186;28;20242;-66
2022/12/01 10:38:35;;;;;;;0.00;0.00;;;;;;;8.00;57.44;95262.84;4952032;28;20196;-66
2022/12/01 10:41:08;;;;;;;0.00;0.00;;;;;;;8.21;57.21;95259.63;4943033;28;20208;-67
2022/12/01 10:43:43;;;;;;;0.22;0.15;;;;;;;8.24;56.99;95267.00;4948787;29;20648;-64
2022/12/01 10:46:24;;;;;;;0.00;0.00;;;;;;;8.21;57.04;95259.63;4941950;29;20242;-68
2022/12/01 10:48:57;;;;;;;0.03;0.03;;;;;;;8.46;56.57;95254.91;4945953;29;20275;-65
2022/12/01 10:51:26;;;;;;;0.00;0.00;;;;;;;8.64;56.16;95249.50;4934267;29;20291;-66
2022/12/01 10:54:06;;;;;;;0.20;0.20;;;;;;;8.72;55.85;95248.31;4945798;28;20279;-64
2022/12/01 10:56:38;;;;;;;0.15;0.15;;;;;;;8.67;56.64;95259.47;4940152;28;20211;-64
2022/12/01 10:59:24;;;;;;;0.00;0.00;;;;;;;8.84;55.36;95249.03;4938357;28;20203;-65
2022/12/01 11:01:52;;;;;;;0.15;0.15;;;;;;;8.83;55.32;95248.25;4951680;28;20227;-68
2022/12/01 11:04:19;;;;;;;0.10;0.10;;;;;;;8.65;55.53;95243.22;4949784;29;20262;-65
2022/12/01 11:06:50;;;;;;;0.00;0.00;;;;;;;8.83;54.48;95247.47;4932425;29;20626;-66
2022/12/01 11:09:20;;;;;;;0.00;0.00;;;;;;;8.77;54.89;95246.59;4945903;28;20208;-64
2022/12/01 11:12:01;;;;;;;0.00;0.00;;;;;;;8.45;54.88;95244.69;4939615;28;20911;-66
2022/12/01 11:14:42;;;;;;;0.00;0.00;;;;;;;8.45;54.87;95242.09;4936620;29;20568;-65
2022/12/01 11:17:21;;;;;;;0.00;0.00;;;;;;;8.34;54.97;95243.69;4944100;29;20203;-67
2022/12/01 11:19:48;;;;;;;0.00;0.00;;;;;;;8.36;55.77;95243.50;4954387;28;20241;-66
2022/12/01 11:22:28;;;;;;;0.00;0.00;;;;;;;8.38;55.31;95239.59;4947469;29;20196;-63
2022/12/01 11:24:59;;;;;;;0.30;0.30;;;;;;;8.45;55.63;95237.63;4957769;28;20270;-68
2022/12/01 11:27:33;;;;;;;0.10;0.10;;;;;;;8.26;55.76;95231.03;4948218;28;20298;-65
2022/12/01 11:30:18;;;;;;;0.00;0.00;;;;;;;8.33;55.25;95234.28;4954893;28;20230;-66
2022/12/01 11:32:51;;;;;;;0.70;0.70;;;;;;;8.45;55.52;95239.47;4957809;28;20196;-64
2022/12/01 11:35:21;;;;;;;0.00;0.00;;;;;;;8.49;55.85;95236.16;4944006;28;20211;-68
2022/12/01 11:37:51;;;;;;;0.00;0.00;;;;;;;8.74;54.92;95233.97;4957702;29;20290;-66
2022/12/01 11:40:50;;;;;;;0.00;0.00;;;;;;;8.82;54.83;95230.19;4945263;28;20275;-65
2022/12/01 11:43:33;;;;;;;0.00;0.00;;;;;;;8.39;55.44;95232.56;4943707;28;20200;-64
2022/12/01 11:46:06;;;;;;;0.00;0.00;;;;;;;8.17;55.57;95240.22;4948888;28;20208;-64
2022/12/01 11:48:35;;;;;;;0.00;0.00;;;;;;;8.57;54.61;95235.78;4953376;28;20271;-68
2022/12/01 11:51:13;;;;;;;0.00;0.00;;;;;;;8.49;54.24;95233.53;4955954;28;20227;-67
2022/12/01 11:53:42;;;;;;;0.05;0.05;;;;;;;8.38;54.54;95217.91;4957709;28;20266;-65
2022/12/01 11:56:11;;;;;;;0.10;0.10;;;;;;;8.01;55.56;95233.91;4953201;28;20196;-67
2022/12/01 11:58:38;;;;;;;0.00;0.00;;;;;;;7.51;56.25;95238.06;4938536;29;20759;-65
2022/12/01 12:01:14;;;;;;;0.00;0.00;;;;;;;8.15;55.83;95239.66;4951678;29;20196;-67
2022/12/01 12:03:56;;;;;;;0.00;0.00;;;;;;;7.85;56.21;95239.03;4938034;29;20200;-67
2022/12/01 12:06:54;;;;;;;0.00;0.00;;;;;;;7.98;56.56;95231.75;4938329;29;20648;-67
2022/12/01 12:09:36;;;;;;;0.00;0.00;;;;;;;8.45;55.59;95229.81;4952508;29;20263;-64